createdAt,value
2018-07-05T00:01:00.226Z,73.22
2018-07-05T00:03:39.356Z,72.24
2018-07-05T00:06:18.096Z,72.30
2018-07-05T00:08:57.091Z,72.67
2018-07-05T00:11:35.971Z,72.86
2018-07-05T00:14:14.899Z,73.03
2018-07-05T00:16:53.852Z,73.03
2018-07-05T00:19:32.674Z,73.29
2018-07-05T00:22:11.412Z,73.48
2018-07-05T00:24:50.318Z,72.92
2018-07-05T00:27:29.112Z,72.82
2018-07-05T00:30:08.049Z,72.67
2018-07-05T00:32:47.815Z,73.58
2018-07-05T00:35:26.656Z,73.36
2018-07-05T00:38:05.666Z,73.55
2018-07-05T00:40:44.539Z,73.46
2018-07-05T00:43:23.611Z,74.06
2018-07-05T00:46:02.539Z,74.08
2018-07-05T00:48:41.449Z,73.66
2018-07-05T00:51:20.452Z,74.16
2018-07-05T00:53:59.299Z,74.17
2018-07-05T00:56:38.080Z,73.36
2018-07-05T00:59:17.068Z,73.42
2018-07-05T01:01:56.120Z,73.86
2018-07-05T01:04:34.965Z,74.22
2018-07-05T01:07:14.018Z,74.22
2018-07-05T01:09:52.877Z,73.44
2018-07-05T01:12:31.943Z,73.80
2018-07-05T01:15:10.932Z,73.85
2018-07-05T01:17:50.013Z,73.80
2018-07-05T01:20:28.871Z,73.64
2018-07-05T01:23:07.931Z,74.01
2018-07-05T01:25:46.916Z,73.76
2018-07-05T01:28:25.839Z,73.65
2018-07-05T01:31:04.741Z,74.27
2018-07-05T01:33:43.646Z,73.91
2018-07-05T01:36:22.535Z,73.81
2018-07-05T01:39:01.388Z,73.90
2018-07-05T01:41:40.192Z,73.67
2018-07-05T01:44:19.194Z,73.58
2018-07-05T01:46:58.150Z,73.45
2018-07-05T01:49:37.243Z,73.02
2018-07-05T01:52:16.776Z,73.34
2018-07-05T01:54:55.598Z,73.45
2018-07-05T01:57:34.571Z,73.37
2018-07-05T02:00:13.781Z,73.03
2018-07-05T02:02:53.588Z,73.99
2018-07-05T02:05:32.924Z,74.16
2018-07-05T02:08:11.808Z,74.19
2018-07-05T02:10:50.762Z,74.17
2018-07-05T02:13:29.671Z,75.06
2018-07-05T02:16:08.636Z,74.50
2018-07-05T02:18:47.619Z,75.49
2018-07-05T02:21:26.576Z,75.34
2018-07-05T02:24:05.516Z,74.63
2018-07-05T02:26:44.339Z,76.12
2018-07-05T02:29:23.161Z,75.17
2018-07-05T02:32:02.115Z,75.85
2018-07-05T02:34:40.969Z,75.20
2018-07-05T02:37:25.354Z,75.07
2018-07-05T02:40:04.072Z,76.20
2018-07-05T02:42:42.991Z,76.32
2018-07-05T02:45:21.909Z,75.88
2018-07-05T02:48:00.919Z,76.45
2018-07-05T02:50:39.930Z,76.11
2018-07-05T02:53:18.792Z,76.16
2018-07-05T02:55:57.743Z,76.11
2018-07-05T02:58:36.739Z,76.04
2018-07-05T03:01:15.564Z,76.44
2018-07-05T03:03:54.583Z,76.33
2018-07-05T03:06:33.449Z,76.25
2018-07-05T03:09:12.425Z,76.15
2018-07-05T03:11:51.188Z,75.86
2018-07-05T03:14:30.079Z,75.28
2018-07-05T03:17:09.018Z,75.38
2018-07-05T03:19:48.011Z,74.80
2018-07-05T03:22:26.772Z,74.39
2018-07-05T03:25:05.736Z,74.27
2018-07-05T03:27:44.857Z,73.41
2018-07-05T03:30:23.818Z,73.67
2018-07-05T03:33:02.867Z,73.85
2018-07-05T03:35:41.854Z,73.84
2018-07-05T03:38:20.812Z,73.62
2018-07-05T03:40:59.816Z,72.45
2018-07-05T03:43:38.726Z,72.46
2018-07-05T03:46:17.570Z,72.70
2018-07-05T03:48:56.422Z,71.87
2018-07-05T03:51:35.196Z,71.87
2018-07-05T03:54:14.038Z,70.97
2018-07-05T03:56:53.056Z,71.15
2018-07-05T03:59:31.886Z,71.18
2018-07-05T04:02:10.838Z,71.57
2018-07-05T04:04:49.831Z,71.82
2018-07-05T04:07:28.675Z,71.63
2018-07-05T04:10:07.563Z,70.87
2018-07-05T04:12:46.326Z,71.19
2018-07-05T04:15:25.428Z,71.43
2018-07-05T04:18:04.447Z,70.56
2018-07-05T04:20:43.880Z,71.74
2018-07-05T04:23:22.864Z,71.21
2018-07-05T04:26:01.763Z,71.65
2018-07-05T04:28:40.615Z,71.29
2018-07-05T04:31:19.553Z,71.27
2018-07-05T04:33:58.474Z,70.91
2018-07-05T04:36:37.571Z,71.08
2018-07-05T04:39:16.416Z,71.21
2018-07-05T04:41:55.326Z,70.97
2018-07-05T04:44:34.180Z,70.95
2018-07-05T04:47:13.200Z,70.80
2018-07-05T04:49:51.982Z,69.94
2018-07-05T04:52:30.898Z,69.27
2018-07-05T04:55:09.872Z,69.08
2018-07-05T04:57:48.676Z,67.62
2018-07-05T05:00:27.536Z,67.29
2018-07-05T05:03:06.553Z,68.42
2018-07-05T05:05:45.583Z,67.06
2018-07-05T05:08:24.478Z,66.58
2018-07-05T05:11:03.311Z,67.18
2018-07-05T05:13:42.289Z,67.72
2018-07-05T05:16:21.080Z,67.65
2018-07-05T05:19:00.661Z,66.09
2018-07-05T05:21:39.624Z,66.79
2018-07-05T05:24:18.553Z,66.23
2018-07-05T05:26:57.354Z,65.20
2018-07-05T05:29:36.249Z,65.06
2018-07-05T05:32:15.119Z,62.86
2018-07-05T05:34:53.978Z,64.99
2018-07-05T05:37:32.756Z,64.51
2018-07-05T05:40:11.788Z,63.57
2018-07-05T05:42:50.685Z,63.96
2018-07-05T05:45:29.784Z,64.37
2018-07-05T05:48:08.896Z,64.74
2018-07-05T05:50:47.752Z,64.32
2018-07-05T05:53:26.730Z,63.78
2018-07-05T05:56:05.663Z,64.55
2018-07-05T05:58:44.547Z,64.85
2018-07-05T06:01:23.479Z,63.61
2018-07-05T06:04:02.559Z,63.54
2018-07-05T06:06:41.579Z,62.71
2018-07-05T06:09:20.412Z,61.89
2018-07-05T06:11:59.394Z,62.90
2018-07-05T06:14:38.417Z,62.00
2018-07-05T06:17:17.369Z,61.79
2018-07-05T06:19:56.465Z,62.93
2018-07-05T06:22:35.476Z,61.61
2018-07-05T06:25:14.204Z,61.72
2018-07-05T06:27:53.268Z,59.57
2018-07-05T06:30:32.196Z,59.90
2018-07-05T06:33:10.944Z,59.33
2018-07-05T06:35:49.772Z,57.26
2018-07-05T06:38:28.488Z,56.00
2018-07-05T06:41:07.252Z,53.56
2018-07-05T06:43:46.191Z,54.60
2018-07-05T06:46:25.165Z,52.27
2018-07-05T06:49:03.849Z,53.06
2018-07-05T06:51:42.648Z,51.99
2018-07-05T06:54:21.507Z,51.30
2018-07-05T06:57:00.471Z,50.38
2018-07-05T06:59:39.299Z,50.91
2018-07-05T07:02:17.996Z,49.59
2018-07-05T07:04:56.868Z,50.03
2018-07-05T07:07:35.721Z,50.42
2018-07-05T07:10:14.625Z,49.63
2018-07-05T07:12:53.609Z,49.41
2018-07-05T07:15:32.588Z,46.00
2018-07-05T07:18:11.498Z,48.41
2018-07-05T07:20:50.345Z,46.81
2018-07-05T07:23:29.367Z,43.70
2018-07-05T07:26:08.315Z,45.78
2018-07-05T07:28:47.300Z,44.99
2018-07-05T07:31:26.385Z,43.11
2018-07-05T07:34:05.288Z,43.14
2018-07-05T07:36:44.257Z,42.43
2018-07-05T07:39:23.100Z,42.23
2018-07-05T07:41:50.696Z,42.51
2018-07-05T07:44:18.608Z,43.08
2018-07-05T07:46:45.879Z,43.61
2018-07-05T07:49:12.694Z,44.41
2018-07-05T07:51:39.139Z,43.47
2018-07-05T07:54:05.544Z,43.49
2018-07-05T07:56:31.930Z,43.24
2018-07-05T07:58:58.341Z,45.00
2018-07-05T08:01:24.767Z,46.18
2018-07-05T08:03:51.204Z,44.72
2018-07-05T08:06:17.616Z,42.69
2018-07-05T08:08:44.049Z,44.30
2018-07-05T08:11:10.447Z,43.13
2018-07-05T08:13:36.844Z,45.04
2018-07-05T08:16:03.247Z,43.33
2018-07-05T08:18:29.688Z,44.51
2018-07-05T08:20:56.114Z,43.97
2018-07-05T08:23:22.600Z,44.73
2018-07-05T08:25:49.019Z,44.56
2018-07-05T08:28:15.407Z,44.35
2018-07-05T08:30:41.855Z,42.78
2018-07-05T08:33:08.248Z,41.24
2018-07-05T08:35:34.672Z,43.64
2018-07-05T08:38:01.089Z,42.62
2018-07-05T08:40:27.523Z,42.73
2018-07-05T08:42:53.915Z,43.28
2018-07-05T08:45:20.579Z,42.77
2018-07-05T08:47:47.531Z,41.88
2018-07-05T08:50:13.947Z,41.75
2018-07-05T08:52:40.349Z,40.02
2018-07-05T08:55:06.816Z,38.52
2018-07-05T08:57:33.207Z,40.12
2018-07-05T08:59:59.593Z,39.61
2018-07-05T09:02:26.047Z,41.11
2018-07-05T09:04:52.544Z,40.55
2018-07-05T09:07:19.058Z,41.46
2018-07-05T09:09:45.475Z,41.41
2018-07-05T09:12:11.894Z,40.29
2018-07-05T09:14:38.632Z,39.30
2018-07-05T09:17:05.411Z,38.72
2018-07-05T09:19:31.811Z,37.83
2018-07-05T09:21:58.214Z,39.89
2018-07-05T09:24:24.596Z,39.46
2018-07-05T09:26:51.107Z,39.28
2018-07-05T09:29:17.471Z,40.22
2018-07-05T09:31:43.897Z,38.18
2018-07-05T09:34:10.318Z,38.05
2018-07-05T09:36:36.748Z,39.23
2018-07-05T09:39:04.287Z,38.29
2018-07-05T09:41:30.667Z,38.61
2018-07-05T09:43:57.045Z,39.11
2018-07-05T09:46:23.498Z,38.73
2018-07-05T09:48:49.891Z,38.61
2018-07-05T09:51:16.291Z,37.34
2018-07-05T09:53:42.732Z,38.49
2018-07-05T09:56:09.112Z,37.37
2018-07-05T09:58:35.513Z,38.42
2018-07-05T10:01:01.921Z,35.94
2018-07-05T10:03:28.316Z,34.70
2018-07-05T10:05:54.742Z,37.20
2018-07-05T10:08:21.235Z,35.97
2018-07-05T10:10:47.643Z,34.90
2018-07-05T10:13:14.147Z,35.29
2018-07-05T10:15:40.585Z,35.30
2018-07-05T10:18:06.983Z,34.74
2018-07-05T10:20:33.710Z,35.76
2018-07-05T10:23:00.111Z,36.33
2018-07-05T10:25:26.517Z,35.61
2018-07-05T10:27:52.946Z,34.57
2018-07-05T10:30:31.833Z,32.26
2018-07-05T10:33:10.715Z,34.08
2018-07-05T10:35:37.128Z,33.21
2018-07-05T10:38:04.149Z,32.03
2018-07-05T10:40:43.923Z,34.46
2018-07-05T10:43:22.927Z,33.60
2018-07-05T10:46:02.512Z,31.78
2018-07-05T10:48:41.407Z,31.80
2018-07-05T10:51:21.129Z,30.79
2018-07-05T10:54:00.557Z,31.89
2018-07-05T10:56:39.683Z,29.38
2018-07-05T10:59:18.895Z,31.71
2018-07-05T11:01:57.815Z,30.24
2018-07-05T11:04:36.775Z,27.82
2018-07-05T11:07:15.688Z,29.70
2018-07-05T11:09:54.487Z,33.37
2018-07-05T11:12:33.279Z,33.77
2018-07-05T11:15:12.190Z,34.79
2018-07-05T11:17:51.065Z,36.20
2018-07-05T11:20:30.454Z,35.76
2018-07-05T11:23:09.419Z,36.06
2018-07-05T11:25:48.322Z,36.41
2018-07-05T11:28:27.120Z,37.32
2018-07-05T11:31:06.107Z,36.86
2018-07-05T11:33:44.939Z,38.18
2018-07-05T11:36:23.882Z,38.69
2018-07-05T11:39:04.312Z,37.75
2018-07-05T11:41:43.079Z,38.44
2018-07-05T11:44:22.008Z,38.82
2018-07-05T11:47:01.028Z,38.29
2018-07-05T11:49:39.983Z,38.94
2018-07-05T11:52:18.899Z,40.03
2018-07-05T11:54:57.724Z,40.16
2018-07-05T11:57:36.519Z,40.56
2018-07-05T12:00:15.395Z,42.08
2018-07-05T12:02:54.254Z,41.11
2018-07-05T12:05:33.236Z,41.93
2018-07-05T12:08:12.211Z,41.49
2018-07-05T12:10:51.219Z,41.49
2018-07-05T12:13:30.104Z,41.62
2018-07-05T12:16:09.068Z,42.31
2018-07-05T12:18:47.998Z,42.79
2018-07-05T12:21:26.910Z,42.79
2018-07-05T12:24:05.980Z,43.97
2018-07-05T12:26:44.996Z,43.87
2018-07-05T12:29:23.924Z,43.72
2018-07-05T12:32:02.901Z,43.44
2018-07-05T12:34:41.704Z,43.91
2018-07-05T12:37:20.728Z,45.54
2018-07-05T12:39:59.691Z,45.65
2018-07-05T12:42:38.699Z,45.84
2018-07-05T12:45:17.597Z,46.28
2018-07-05T12:47:56.479Z,45.75
2018-07-05T12:50:35.389Z,46.23
2018-07-05T12:53:14.339Z,45.98
2018-07-05T12:55:53.346Z,46.06
2018-07-05T12:58:32.335Z,47.20
2018-07-05T13:01:11.318Z,47.38
2018-07-05T13:03:50.317Z,47.30
2018-07-05T13:06:29.315Z,47.62
2018-07-05T13:09:08.719Z,47.46
2018-07-05T13:11:47.567Z,47.74
2018-07-05T13:14:26.979Z,47.51
2018-07-05T13:17:05.920Z,47.68
2018-07-05T13:19:44.764Z,48.63
2018-07-05T13:22:23.600Z,49.21
2018-07-05T13:25:02.681Z,48.69
2018-07-05T13:27:41.864Z,48.51
2018-07-05T13:30:20.742Z,48.57
2018-07-05T13:32:59.757Z,47.27
2018-07-05T13:35:38.812Z,47.24
2018-07-05T13:38:17.824Z,48.61
2018-07-05T13:40:56.936Z,47.53
2018-07-05T13:43:35.797Z,48.67
2018-07-05T13:46:14.643Z,48.90
2018-07-05T13:48:53.388Z,49.96
2018-07-05T13:51:32.451Z,49.68
2018-07-05T13:54:11.473Z,50.59
2018-07-05T13:56:50.724Z,49.76
2018-07-05T13:59:29.608Z,50.12
2018-07-05T14:02:08.453Z,50.92
2018-07-05T14:04:47.325Z,50.49
2018-07-05T14:07:26.263Z,50.50
2018-07-05T14:10:05.123Z,50.33
2018-07-05T14:12:43.971Z,49.50
2018-07-05T14:15:22.819Z,50.27
2018-07-05T14:18:01.559Z,50.67
2018-07-05T14:20:40.448Z,50.70
2018-07-05T14:23:19.268Z,51.33
2018-07-05T14:25:58.159Z,51.22
2018-07-05T14:28:36.894Z,51.90
2018-07-05T14:31:15.755Z,51.20
2018-07-05T14:33:54.633Z,50.66
2018-07-05T14:36:33.567Z,50.76
2018-07-05T14:39:12.382Z,52.09
2018-07-05T14:41:51.123Z,51.34
2018-07-05T14:44:30.176Z,51.01
2018-07-05T14:47:09.031Z,51.03
2018-07-05T14:49:47.875Z,51.43
2018-07-05T14:52:26.793Z,51.81
2018-07-05T14:55:05.507Z,51.62
2018-07-05T14:57:44.355Z,51.20
2018-07-05T15:00:23.221Z,51.51
2018-07-05T15:03:02.140Z,51.07
2018-07-05T15:05:41.035Z,51.47
2018-07-05T15:08:19.746Z,50.29
2018-07-05T15:10:58.718Z,50.59
2018-07-05T15:13:37.734Z,51.29
2018-07-05T15:16:16.864Z,50.80
2018-07-05T15:18:57.384Z,51.88
2018-07-05T15:21:36.319Z,51.86
2018-07-05T15:24:15.346Z,52.11
2018-07-05T15:26:54.720Z,52.28
2018-07-05T15:29:33.497Z,52.41
2018-07-05T15:32:12.383Z,51.99
2018-07-05T15:34:51.203Z,52.56
2018-07-05T15:37:30.242Z,53.01
2018-07-05T15:40:09.299Z,53.83
2018-07-05T15:42:48.138Z,53.28
2018-07-05T15:45:27.010Z,52.97
2018-07-05T15:48:05.911Z,54.19
2018-07-05T15:50:44.758Z,53.74
2018-07-05T15:53:23.559Z,54.49
2018-07-05T15:56:02.392Z,54.31
2018-07-05T15:58:41.244Z,54.45
2018-07-05T16:01:20.108Z,54.55
2018-07-05T16:03:58.878Z,54.46
2018-07-05T16:06:37.682Z,54.46
2018-07-05T16:09:16.528Z,55.09
2018-07-05T16:11:55.475Z,55.87
2018-07-05T16:14:34.326Z,55.18
2018-07-05T16:17:13.336Z,55.65
2018-07-05T16:19:52.175Z,56.68
2018-07-05T16:22:30.998Z,56.22
2018-07-05T16:25:10.024Z,56.12
2018-07-05T16:27:48.850Z,56.30
2018-07-05T16:30:27.683Z,56.32
2018-07-05T16:33:06.514Z,56.77
2018-07-05T16:35:45.271Z,56.74
2018-07-05T16:38:24.181Z,57.02
2018-07-05T16:41:03.127Z,57.55
2018-07-05T16:43:41.991Z,57.50
2018-07-05T16:46:20.887Z,57.81
2018-07-05T16:48:59.834Z,57.75
2018-07-05T16:51:38.741Z,57.74
2018-07-05T16:54:17.455Z,57.79
2018-07-05T16:56:56.504Z,57.70
2018-07-05T16:59:35.486Z,57.75
2018-07-05T17:02:14.340Z,58.48
2018-07-05T17:04:53.298Z,58.31
2018-07-05T17:07:32.227Z,58.47
2018-07-05T17:10:11.131Z,58.68
2018-07-05T17:12:49.961Z,59.09
2018-07-05T17:15:28.860Z,58.94
2018-07-05T17:18:07.792Z,59.38
2018-07-05T17:20:46.734Z,59.48
2018-07-05T17:23:25.731Z,59.44
2018-07-05T17:26:04.579Z,59.49
2018-07-05T17:28:43.421Z,59.64
2018-07-05T17:31:22.318Z,59.71
2018-07-05T17:34:01.280Z,59.72
2018-07-05T17:36:40.276Z,59.94
2018-07-05T17:39:19.153Z,60.38
2018-07-05T17:41:58.073Z,59.79
2018-07-05T17:44:37.147Z,59.65
2018-07-05T17:47:15.963Z,59.47
2018-07-05T17:49:54.766Z,59.57
2018-07-05T17:52:33.783Z,60.20
2018-07-05T17:55:12.560Z,59.94
2018-07-05T17:57:51.569Z,60.04
2018-07-05T18:00:30.531Z,60.32
2018-07-05T18:03:09.484Z,60.27
2018-07-05T18:05:48.474Z,60.16
2018-07-05T18:08:27.436Z,60.84
2018-07-05T18:11:06.292Z,60.18
2018-07-05T18:13:45.277Z,60.62
2018-07-05T18:16:24.136Z,60.26
2018-07-05T18:19:03.006Z,60.90
2018-07-05T18:21:42.188Z,60.94
2018-07-05T18:24:20.942Z,61.17
2018-07-05T18:26:59.915Z,61.08
2018-07-05T18:29:38.808Z,61.76
2018-07-05T18:32:17.523Z,61.79
2018-07-05T18:34:56.363Z,61.84
2018-07-05T18:37:35.160Z,62.01
2018-07-05T18:40:13.983Z,62.24
2018-07-05T18:42:52.943Z,62.60
2018-07-05T18:45:31.939Z,62.79
2018-07-05T18:48:10.855Z,62.84
2018-07-05T18:50:49.731Z,63.22
2018-07-05T18:53:28.570Z,63.54
2018-07-05T18:56:07.516Z,63.29
2018-07-05T18:58:46.478Z,63.80
2018-07-05T19:01:25.257Z,63.73
2018-07-05T19:04:04.189Z,64.24
2018-07-05T19:06:43.138Z,64.50
2018-07-05T19:09:22.025Z,64.70
2018-07-05T19:12:00.882Z,64.51
2018-07-05T19:14:39.688Z,64.80
2018-07-05T19:17:18.595Z,65.18
2018-07-05T19:19:57.415Z,65.31
2018-07-05T19:22:36.314Z,65.88
2018-07-05T19:25:15.199Z,66.07
2018-07-05T19:27:54.055Z,65.40
2018-07-05T19:30:32.819Z,65.81
2018-07-05T19:33:11.728Z,65.63
2018-07-05T19:35:50.679Z,65.36
2018-07-05T19:38:29.523Z,65.80
2018-07-05T19:41:08.443Z,66.33
2018-07-05T19:43:47.431Z,66.11
2018-07-05T19:46:26.389Z,66.65
2018-07-05T19:49:05.414Z,66.51
2018-07-05T19:51:44.423Z,66.95
2018-07-05T19:54:23.370Z,67.40
2018-07-05T19:57:02.114Z,67.49
2018-07-05T19:59:41.090Z,67.87
2018-07-05T20:02:20.163Z,68.16
2018-07-05T20:04:58.979Z,67.94
2018-07-05T20:07:37.805Z,67.80
2018-07-05T20:10:16.459Z,68.71
2018-07-05T20:12:55.231Z,68.87
2018-07-05T20:15:33.975Z,69.78
2018-07-05T20:18:12.699Z,69.46
2018-07-05T20:20:51.507Z,70.26
2018-07-05T20:23:30.544Z,70.33
2018-07-05T20:26:11.322Z,70.48
2018-07-05T20:28:50.243Z,71.12
2018-07-05T20:31:29.145Z,71.23
2018-07-05T20:34:08.193Z,71.92
2018-07-05T20:36:47.053Z,71.49
2018-07-05T20:39:26.111Z,71.97
2018-07-05T20:42:05.203Z,71.68
2018-07-05T20:44:43.947Z,73.10
2018-07-05T20:47:22.969Z,72.54
2018-07-05T20:50:01.901Z,72.61
2018-07-05T20:52:40.746Z,73.52
2018-07-05T20:55:19.531Z,73.32
2018-07-05T20:57:58.435Z,73.30
2018-07-05T21:00:37.211Z,73.44
2018-07-05T21:03:15.959Z,73.46
2018-07-05T21:05:54.847Z,73.16
2018-07-05T21:08:33.738Z,73.22
2018-07-05T21:11:12.474Z,73.68
2018-07-05T21:13:51.263Z,73.21
2018-07-05T21:16:30.214Z,73.07
2018-07-05T21:19:09.036Z,73.57
2018-07-05T21:21:47.844Z,72.81
2018-07-05T21:24:26.671Z,73.76
2018-07-05T21:27:05.396Z,73.47
2018-07-05T21:29:44.111Z,73.25
2018-07-05T21:32:22.856Z,73.71
2018-07-05T21:35:01.957Z,73.52
2018-07-05T21:37:40.662Z,73.47
2018-07-05T21:40:19.357Z,73.17
2018-07-05T21:42:58.218Z,73.07
2018-07-05T21:45:37.087Z,73.49
2018-07-05T21:48:16.060Z,73.24
2018-07-05T21:50:55.223Z,73.67
2018-07-05T21:53:34.137Z,73.87
2018-07-05T21:56:12.844Z,74.02
2018-07-05T21:58:51.734Z,74.11
2018-07-05T22:01:30.613Z,74.26
2018-07-05T22:04:09.619Z,74.44
2018-07-05T22:06:48.446Z,73.84
2018-07-05T22:09:27.312Z,74.11
2018-07-05T22:12:06.171Z,73.97
2018-07-05T22:14:44.924Z,74.23
2018-07-05T22:17:29.557Z,74.03
2018-07-05T22:20:13.924Z,73.91
2018-07-05T22:22:58.391Z,74.37
2018-07-05T22:25:43.080Z,74.52
2018-07-05T22:28:27.572Z,74.37
2018-07-05T22:31:12.004Z,74.57
2018-07-05T22:33:50.964Z,73.96
2018-07-05T22:36:29.955Z,74.96
2018-07-05T22:39:08.730Z,74.74
2018-07-05T22:41:47.594Z,75.07
2018-07-05T22:44:26.431Z,74.22
2018-07-05T22:47:05.131Z,74.99
2018-07-05T22:49:44.112Z,74.52
2018-07-05T22:52:22.907Z,75.05
2018-07-05T22:55:01.807Z,75.23
2018-07-05T22:57:40.691Z,75.10
2018-07-05T23:00:20.459Z,75.76
2018-07-05T23:02:59.458Z,75.12
2018-07-05T23:05:38.547Z,75.03
2018-07-05T23:08:17.307Z,75.39
2018-07-05T23:10:56.187Z,75.54
2018-07-05T23:13:34.972Z,74.90
2018-07-05T23:16:13.927Z,75.31
2018-07-05T23:18:52.733Z,75.04
2018-07-05T23:21:31.630Z,75.79
2018-07-05T23:24:10.431Z,75.54
2018-07-05T23:26:49.284Z,75.01
2018-07-05T23:29:28.158Z,75.17
2018-07-05T23:32:07.451Z,75.12
2018-07-05T23:34:46.240Z,75.50
2018-07-05T23:37:25.039Z,75.67
2018-07-05T23:40:03.818Z,75.71
2018-07-05T23:42:42.650Z,75.30
2018-07-05T23:45:21.428Z,75.49
2018-07-05T23:48:00.469Z,74.99
2018-07-05T23:50:39.323Z,75.74
2018-07-05T23:53:18.398Z,75.50
2018-07-05T23:55:57.340Z,75.66
2018-07-05T23:58:36.344Z,75.79
